Adams, New York
Current Conditions -  °F | °C
As of 2:56 PM on Wednesday 26 Nov 2014 (Local Time) from KART Reporting Station
Overcast Overcast  
Wind Chill: -4°   Ceiling: 6000
Heat Index:   Visibility: 10mi
Dew Point: -7°   Wind: 9mph
Humidity: 56%   Direction: 30°NNE
Pressure: 30.14"   Gusts: NA
Location:  43.81°N, 76.02°W
Report Text: KART 261956Z AUTO 03008KT 10SM OVC060 01/M07 A3014 RMK AO2 SLP211 T00061072
Loading
Personal Weather Stations






























Interactive Weather Map New forecast layout! Learn more

10-Day Weather Forecast

Advertisements
Track Severe Weather on mobile